Time;durP1;ratioP1;P1;durP2;ratioP2;P2;SDS_P1;SDS_P2;PMS_P1;PMS_P2;Temp;Humidity;BMP_temperature;BMP_pressure;BME280_temperature;BME280_humidity;BME280_pressure;Samples;Min_cycle;Max_cycle;Signal;HPM_P1;HPM_P2
2022/11/15 00:00:43;;;;;;;146.18;38.17;;;8.40;99.90;;;;;;5009783;28;20061;-57
2022/11/15 00:03:08;;;;;;;218.13;45.55;;;8.50;99.90;;;;;;5025085;28;20538;-56
2022/11/15 00:05:37;;;;;;;137.52;38.20;;;8.60;99.90;;;;;;5009204;28;20037;-56
2022/11/15 00:08:03;;;;;;;220.32;52.22;;;8.60;99.90;;;;;;5005079;28;20034;-56
2022/11/15 00:10:28;;;;;;;293.02;53.15;;;8.60;99.90;;;;;;5007178;28;20084;-57
2022/11/15 00:12:54;;;;;;;144.18;35.92;;;8.70;99.90;;;;;;5009581;28;20026;-56
2022/11/15 00:15:20;;;;;;;198.20;50.58;;;8.40;99.90;;;;;;5019745;28;20061;-55
2022/11/15 00:17:49;;;;;;;129.18;35.78;;;8.60;99.90;;;;;;5026714;28;20446;-56
2022/11/15 00:20:14;;;;;;;199.63;48.05;;;8.60;99.90;;;;;;5005934;28;20052;-55
2022/11/15 00:22:40;;;;;;;252.90;53.67;;;8.70;99.90;;;;;;4993097;28;20038;-56
2022/11/15 00:25:06;;;;;;;122.13;38.60;;;8.80;99.90;;;;;;5004291;28;20076;-55
2022/11/15 00:27:32;;;;;;;240.30;53.08;;;8.70;99.90;;;;;;5008955;28;20120;-56
2022/11/15 00:29:58;;;;;;;337.23;57.63;;;8.80;99.90;;;;;;5009243;28;20203;-56
2022/11/15 00:32:23;;;;;;;140.40;45.97;;;8.90;99.90;;;;;;5003531;28;20034;-56
2022/11/15 00:34:49;;;;;;;174.13;48.25;;;8.90;99.90;;;;;;5010419;28;20022;-56
2022/11/15 00:37:15;;;;;;;282.20;52.70;;;9.00;99.90;;;;;;5024541;28;20038;-56
2022/11/15 00:39:41;;;;;;;255.68;48.95;;;9.00;99.90;;;;;;5008544;28;20374;-56
2022/11/15 00:42:06;;;;;;;256.23;50.90;;;9.10;99.90;;;;;;5037193;28;20073;-56
2022/11/15 00:44:32;;;;;;;80.95;29.50;;;9.10;99.90;;;;;;5010397;28;20457;-56
2022/11/15 00:46:58;;;;;;;131.82;39.97;;;8.90;99.90;;;;;;5009488;28;20037;-56
2022/11/15 00:49:24;;;;;;;83.03;29.40;;;8.90;99.90;;;;;;5006831;28;20056;-56
2022/11/15 00:51:49;;;;;;;107.13;35.38;;;8.90;99.90;;;;;;5007063;28;20034;-57
2022/11/15 00:54:15;;;;;;;141.82;41.20;;;8.80;99.90;;;;;;5004883;28;20022;-56
2022/11/15 00:56:41;;;;;;;174.23;49.92;;;9.10;99.90;;;;;;5009710;28;20076;-55
2022/11/15 00:59:06;;;;;;;177.35;45.70;;;9.00;99.90;;;;;;5008242;28;20034;-56
2022/11/15 01:01:32;;;;;;;272.75;54.30;;;9.20;99.90;;;;;;5023673;28;20077;-56
2022/11/15 01:03:58;;;;;;;139.15;47.75;;;9.40;99.90;;;;;;5009716;28;20053;-56
2022/11/15 01:06:24;;;;;;;233.88;51.00;;;9.40;99.90;;;;;;5006391;28;20023;-55
2022/11/15 01:08:50;;;;;;;290.48;53.38;;;;;;;;;;5007404;28;20060;-56
2022/11/15 01:11:16;;;;;;;273.63;51.67;;;9.90;99.90;;;;;;5006789;28;20053;-56
2022/11/15 01:13:41;;;;;;;236.23;51.25;;;9.90;99.90;;;;;;5009622;28;20398;-57
2022/11/15 01:16:14;;;;;;;154.82;49.25;;;10.10;99.90;;;;;;5011660;28;20033;-56
2022/11/15 01:18:40;;;;;;;256.73;52.13;;;10.50;99.90;;;;;;5012759;28;20038;-56
2022/11/15 01:21:12;;;;;;;224.20;50.30;;;10.20;99.90;;;;;;5039120;28;20073;-56
2022/11/15 01:23:38;;;;;;;224.27;51.95;;;10.30;99.90;;;;;;5024668;28;20031;-56
2022/11/15 01:26:06;;;;;;;180.13;48.88;;;10.40;99.90;;;;;;5007196;28;20049;-56
2022/11/15 01:28:34;;;;;;;189.85;47.95;;;10.40;99.90;;;;;;5007089;28;20061;-56
2022/11/15 01:31:02;;;;;;;233.63;50.33;;;10.50;99.90;;;;;;5011814;28;20029;-56
2022/11/15 01:33:28;;;;;;;263.67;48.40;;;10.50;99.90;;;;;;5012129;28;20026;-56
2022/11/15 01:35:55;;;;;;;268.30;52.67;;;10.40;99.90;;;;;;5011164;28;20083;-56
2022/11/15 01:38:21;;;;;;;189.95;48.88;;;10.40;99.90;;;;;;5008837;28;20084;-57
2022/11/15 01:40:47;;;;;;;260.05;50.38;;;10.50;99.90;;;;;;5011694;28;20029;-57
2022/11/15 01:43:28;;;;;;;207.55;49.95;;;10.60;99.90;;;;;;5011906;28;20038;-56
2022/11/15 01:46:22;;;;;;;145.40;47.05;;;10.60;99.90;;;;;;5031993;28;20030;-56
2022/11/15 01:48:51;;;;;;;177.10;46.90;;;10.60;99.90;;;;;;5007873;28;20053;-56
2022/11/15 01:51:19;;;;;;;241.32;49.00;;;10.30;99.90;;;;;;5010126;28;20037;-56
2022/11/15 01:53:48;;;;;;;155.20;49.28;;;10.50;99.90;;;;;;5007191;28;20205;-55
2022/11/15 01:56:19;;;;;;;315.98;55.50;;;10.70;99.90;;;;;;5013734;28;20033;-56
2022/11/15 01:58:45;;;;;;;201.07;49.13;;;10.70;99.90;;;;;;5010613;28;20046;-56
2022/11/15 02:01:13;;;;;;;167.13;51.22;;;10.70;99.90;;;;;;5010242;28;20034;-56
2022/11/15 02:03:54;;;;;;;181.93;50.42;;;10.80;99.90;;;;;;5007927;28;20152;-55
2022/11/15 02:06:21;;;;;;;204.27;48.20;;;10.60;99.90;;;;;;5010098;28;20051;-58
2022/11/15 02:08:47;;;;;;;238.02;48.70;;;10.60;99.90;;;;;;5009003;28;20029;-56
2022/11/15 02:11:13;;;;;;;202.07;48.85;;;10.60;99.90;;;;;;5011639;28;20026;-56
2022/11/15 02:13:39;;;;;;;120.35;47.20;;;10.70;99.90;;;;;;5007566;28;20045;-56
2022/11/15 02:16:05;;;;;;;107.65;46.95;;;10.70;99.90;;;;;;5012031;28;20095;-56
2022/11/15 02:18:52;;;;;;;159.32;48.20;;;10.50;99.90;;;;;;5009237;28;20065;-56
2022/11/15 02:21:17;;;;;;;160.70;44.95;;;10.70;99.90;;;;;;5007777;28;20029;-56
2022/11/15 02:23:56;;;;;;;152.30;48.88;;;10.80;99.90;;;;;;5010843;28;20037;-56
2022/11/15 02:26:44;;;;;;;113.55;45.80;;;10.80;99.90;;;;;;5013672;28;20496;-56
2022/11/15 02:29:32;;;;;;;166.02;48.90;;;10.80;99.90;;;;;;5021278;28;20042;-56
2022/11/15 02:32:21;;;;;;;144.15;48.72;;;10.90;99.90;;;;;;4992037;28;20042;-56
2022/11/15 02:35:06;;;;;;;131.55;47.05;;;11.00;99.90;;;;;;4992254;28;20042;-56
2022/11/15 02:38:13;;;;;;;209.88;50.05;;;11.00;99.90;;;;;;4957220;28;20062;-56
2022/11/15 02:40:45;;;;;;;111.68;48.42;;;10.90;99.90;;;;;;4934679;29;20115;-56
2022/11/15 02:47:12;;;;;;;179.05;53.47;;;11.10;99.90;;;;;;4934959;29;20051;-56
2022/11/15 02:49:13;;;;;;;171.52;49.13;;;11.10;99.90;;;;;;4934217;29;20043;-56
2022/11/15 02:51:40;;;;;;;157.80;48.33;;;11.00;99.90;;;;;;4934250;29;20515;-56
2022/11/15 02:54:06;;;;;;;146.55;50.67;;;10.30;99.90;;;;;;4934210;29;20447;-56
2022/11/15 02:56:32;;;;;;;153.20;55.38;;;10.30;99.90;;;;;;4934916;29;20075;-56
2022/11/15 02:59:17;;;;;;;150.45;47.70;;;10.30;99.90;;;;;;4934033;29;20051;-56
2022/11/15 03:01:54;;;;;;;131.55;45.90;;;10.00;99.90;;;;;;4934761;29;20059;-56
2022/11/15 03:04:52;;;;;;;127.05;39.45;;;9.70;99.90;;;;;;4934421;29;20056;-57
2022/11/15 03:07:54;;;;;;;115.35;45.35;;;9.40;99.90;;;;;;4929899;29;20059;-56
2022/11/15 03:10:20;;;;;;;108.30;44.55;;;9.40;99.90;;;;;;4857601;29;20048;-56
2022/11/15 03:13:00;;;;;;;113.47;46.60;;;9.40;99.90;;;;;;4858910;29;20037;-56
2022/11/15 03:15:40;;;;;;;106.10;45.85;;;9.90;99.90;;;;;;4855937;29;20052;-56
2022/11/15 03:18:19;;;;;;;107.22;45.35;;;9.90;99.90;;;;;;4919252;29;20098;-56
2022/11/15 03:20:46;;;;;;;96.15;44.70;;;10.20;99.90;;;;;;4933566;29;20039;-56
2022/11/15 03:23:13;;;;;;;101.45;46.60;;;10.40;99.90;;;;;;4932097;29;20028;-56
2022/11/15 03:25:45;;;;;;;98.20;47.67;;;10.10;99.90;;;;;;4931027;29;20119;-56
2022/11/15 03:28:16;;;;;;;94.72;44.25;;;10.40;99.90;;;;;;4928556;29;20139;-57
2022/11/15 03:30:43;;;;;;;99.88;46.88;;;10.50;99.90;;;;;;4931189;29;20392;-56
2022/11/15 03:33:10;;;;;;;92.45;43.50;;;10.60;99.90;;;;;;4931491;29;20459;-56
2022/11/15 03:35:42;;;;;;;91.80;44.67;;;10.50;99.90;;;;;;4933276;29;20380;-56
2022/11/15 03:38:22;;;;;;;105.38;48.10;;;10.30;99.90;;;;;;4932193;29;20502;-55
2022/11/15 03:40:59;;;;;;;97.10;48.72;;;10.10;99.90;;;;;;4929083;29;20043;-56
2022/11/15 03:43:39;;;;;;;97.72;47.20;;;10.30;99.90;;;;;;4932993;29;20067;-56
2022/11/15 03:46:13;;;;;;;101.55;48.20;;;10.40;99.90;;;;;;4934876;28;20186;-56
2022/11/15 03:48:42;;;;;;;98.70;47.53;;;;;;;;;;5009347;28;20057;-56
2022/11/15 03:51:08;;;;;;;99.60;46.97;;;;;;;;;;5008417;28;20037;-56
2022/11/15 03:53:34;;;;;;;92.60;44.58;;;10.00;99.90;;;;;;5005781;28;20026;-56
2022/11/15 03:55:59;;;;;;;95.28;46.70;;;9.80;99.90;;;;;;5007395;28;20036;-56
2022/11/15 03:58:25;;;;;;;99.85;47.28;;;9.80;99.90;;;;;;5008742;28;20044;-56
2022/11/15 04:00:51;;;;;;;97.00;45.55;;;9.90;99.90;;;;;;5009525;28;20080;-55
2022/11/15 04:03:16;;;;;;;91.32;46.33;;;10.10;99.90;;;;;;5039008;28;20042;-56
2022/11/15 04:05:42;;;;;;;98.70;46.00;;;10.20;99.90;;;;;;5011128;28;20105;-56
2022/11/15 04:08:08;;;;;;;90.93;46.30;;;10.30;99.90;;;;;;5006445;28;20470;-56
2022/11/15 04:10:33;;;;;;;82.60;43.90;;;10.40;99.90;;;;;;5007997;28;20061;-56
2022/11/15 04:12:59;;;;;;;88.95;43.72;;;10.50;99.90;;;;;;5008490;28;20053;-56
2022/11/15 04:15:25;;;;;;;85.05;43.78;;;10.60;99.90;;;;;;5010970;28;20026;-56
2022/11/15 04:17:53;;;;;;;82.47;42.25;;;10.40;99.90;;;;;;5008604;28;20041;-56
2022/11/15 04:26:05;;;;;;;;;;;10.60;99.90;;;;;;5006018;28;20128;-55
2022/11/15 04:28:31;;;;;;;76.50;40.28;;;10.70;99.90;;;;;;5009752;28;19912;-56
2022/11/15 04:30:57;;;;;;;81.13;43.33;;;10.80;99.90;;;;;;5008719;28;20026;-56
2022/11/15 04:33:23;;;;;;;93.45;45.67;;;10.90;99.90;;;;;;5006968;28;20030;-55
2022/11/15 04:38:34;;;;;;;90.32;43.38;;;10.40;99.90;;;;;;5000415;28;20045;-56
2022/11/15 04:41:00;;;;;;;87.03;44.17;;;10.40;99.90;;;;;;5007699;28;20029;-56
2022/11/15 04:43:26;;;;;;;90.28;45.78;;;10.50;99.90;;;;;;5002892;28;20401;-56
2022/11/15 04:45:52;;;;;;;87.88;44.13;;;10.60;99.90;;;;;;5008351;28;20026;-56
2022/11/15 04:48:17;;;;;;;87.05;43.72;;;10.80;99.90;;;;;;5003510;28;20473;-55
2022/11/15 04:50:43;;;;;;;80.82;40.92;;;10.80;99.90;;;;;;5012576;28;20541;-56
2022/11/15 04:53:09;;;;;;;84.47;43.80;;;10.70;99.90;;;;;;5009091;28;20385;-56
2022/11/15 04:55:35;;;;;;;90.35;43.88;;;10.90;99.90;;;;;;5010531;28;20034;-56
2022/11/15 04:58:02;;;;;;;87.72;42.70;;;10.90;99.90;;;;;;5010109;28;20044;-56
2022/11/15 05:00:29;;;;;;;91.60;44.38;;;10.60;99.90;;;;;;5010704;28;20026;-57
2022/11/15 05:05:39;;;;;;;88.32;44.50;;;10.50;99.90;;;;;;5010734;28;20049;-56
2022/11/15 05:08:05;;;;;;;107.50;47.33;;;10.20;99.90;;;;;;5012839;28;20022;-56
2022/11/15 05:10:31;;;;;;;108.60;47.28;;;10.40;99.90;;;;;;5014149;28;20046;-56
2022/11/15 05:12:57;;;;;;;104.95;46.20;;;10.30;99.90;;;;;;5012485;28;20030;-56
2022/11/15 05:15:22;;;;;;;97.72;56.30;;;10.50;99.90;;;;;;5011321;28;20470;-56
2022/11/15 05:17:48;;;;;;;103.60;51.50;;;10.60;99.90;;;;;;5010413;28;20053;-56
2022/11/15 05:20:14;;;;;;;102.65;51.67;;;;;;;;;;5007316;28;20023;-56
2022/11/15 05:22:40;;;;;;;104.00;50.42;;;10.70;99.90;;;;;;5010923;28;20037;-56
2022/11/15 05:25:07;;;;;;;97.50;46.65;;;10.50;99.90;;;;;;5009937;28;20038;-55
2022/11/15 05:27:34;;;;;;;91.97;45.35;;;10.50;99.90;;;;;;5020801;28;20033;-56
2022/11/15 05:29:59;;;;;;;90.38;42.17;;;10.20;99.90;;;;;;5012292;28;20026;-56
2022/11/15 05:32:26;;;;;;;92.65;46.58;;;10.30;99.90;;;;;;5012247;28;20033;-55
2022/11/15 05:34:52;;;;;;;94.15;46.83;;;10.30;99.90;;;;;;5011571;28;20486;-55
2022/11/15 05:37:18;;;;;;;89.95;45.25;;;10.40;99.90;;;;;;5029927;28;20034;-55
2022/11/15 05:39:43;;;;;;;89.93;40.35;;;10.40;99.90;;;;;;5010401;28;20093;-56
2022/11/15 05:42:12;;;;;;;103.80;46.38;;;10.30;99.90;;;;;;5041431;28;20045;-56
2022/11/15 05:44:41;;;;;;;98.00;45.58;;;10.30;99.90;;;;;;5013452;28;20077;-56
2022/11/15 05:47:11;;;;;;;93.03;46.55;;;10.20;99.90;;;;;;5011238;28;20030;-57
2022/11/15 05:49:40;;;;;;;93.85;44.25;;;10.10;99.90;;;;;;5012137;28;20061;-56
2022/11/15 05:52:10;;;;;;;91.43;44.95;;;10.10;99.90;;;;;;5009371;28;20034;-56
2022/11/15 05:54:36;;;;;;;96.47;44.38;;;10.10;99.90;;;;;;5015020;28;20034;-57
2022/11/15 05:57:03;;;;;;;87.80;45.10;;;10.00;99.90;;;;;;5008533;28;20026;-56
2022/11/15 05:59:30;;;;;;;89.13;42.40;;;9.90;99.90;;;;;;5009749;28;20030;-57
2022/11/15 06:01:57;;;;;;;77.82;39.65;;;10.20;99.90;;;;;;5013236;28;20080;-56
2022/11/15 06:04:23;;;;;;;77.25;40.85;;;10.00;99.90;;;;;;5013076;28;20081;-56
2022/11/15 06:06:48;;;;;;;85.60;41.58;;;10.00;99.90;;;;;;5009597;28;20069;-57
2022/11/15 06:09:14;;;;;;;86.85;41.13;;;10.20;99.90;;;;;;5010499;28;20022;-56
2022/11/15 06:11:40;;;;;;;80.15;41.08;;;10.00;99.90;;;;;;5026844;28;20042;-58
2022/11/15 06:14:05;;;;;;;90.22;45.30;;;10.10;99.90;;;;;;5007860;28;20097;-56
2022/11/15 06:16:31;;;;;;;97.55;50.47;;;10.10;99.90;;;;;;5024901;28;20038;-56
2022/11/15 06:18:57;;;;;;;100.38;46.63;;;10.40;99.90;;;;;;5011754;28;20117;-56
2022/11/15 06:21:23;;;;;;;95.47;44.65;;;10.20;99.90;;;;;;5040512;28;20041;-57
2022/11/15 06:23:48;;;;;;;119.65;70.22;;;10.30;99.90;;;;;;5026908;28;20034;-56
2022/11/15 06:26:14;;;;;;;102.00;46.80;;;10.60;99.90;;;;;;5011685;28;20097;-56
2022/11/15 06:28:40;;;;;;;99.63;49.05;;;10.80;99.90;;;;;;5009521;28;20046;-57
2022/11/15 06:31:11;;;;;;;84.78;45.28;;;10.90;99.90;;;;;;5004564;28;20033;-56
2022/11/15 06:33:39;;;;;;;89.05;44.85;;;11.10;99.90;;;;;;5009600;28;20030;-56
2022/11/15 06:36:08;;;;;;;95.82;46.83;;;11.00;99.90;;;;;;5009883;28;20023;-57
2022/11/15 06:38:34;;;;;;;90.85;49.08;;;10.80;99.90;;;;;;4994023;28;20418;-56
2022/11/15 06:41:05;;;;;;;103.95;67.90;;;10.90;99.90;;;;;;5007381;28;20462;-56
2022/11/15 06:43:32;;;;;;;95.45;57.15;;;11.00;99.90;;;;;;5013027;28;20454;-56
2022/11/15 06:45:59;;;;;;;100.45;48.22;;;11.10;99.90;;;;;;5011986;28;20116;-57
2022/11/15 06:48:25;;;;;;;80.78;43.90;;;;;;;;;;5010950;28;20038;-57
2022/11/15 06:50:55;;;;;;;83.07;44.72;;;11.40;99.90;;;;;;5009294;28;20038;-56
2022/11/15 06:53:21;;;;;;;83.07;46.80;;;;;;;;;;5007410;28;20101;-56
2022/11/15 06:55:47;;;;;;;102.47;56.47;;;11.50;99.90;;;;;;5010433;28;20029;-57
2022/11/15 06:58:13;;;;;;;97.93;50.67;;;11.60;99.90;;;;;;5011380;28;20037;-56
2022/11/15 07:00:39;;;;;;;88.22;48.22;;;11.50;99.90;;;;;;5008324;28;20037;-57
2022/11/15 07:03:04;;;;;;;106.05;49.92;;;11.40;99.90;;;;;;5006767;28;20084;-56
2022/11/15 07:05:30;;;;;;;92.00;47.58;;;11.40;99.90;;;;;;5012439;28;20478;-57
2022/11/15 07:07:57;;;;;;;135.73;53.60;;;11.30;99.90;;;;;;5005889;28;20037;-56
2022/11/15 07:10:24;;;;;;;142.60;52.00;;;11.10;99.90;;;;;;5004751;28;20026;-56
2022/11/15 07:12:54;;;;;;;134.55;58.30;;;11.10;99.90;;;;;;5007279;28;20509;-57
2022/11/15 07:15:22;;;;;;;176.10;56.53;;;11.30;99.90;;;;;;5008600;28;20030;-56
2022/11/15 07:17:47;;;;;;;159.15;60.28;;;11.50;99.90;;;;;;5008691;28;20438;-56
2022/11/15 07:20:14;;;;;;;193.65;64.45;;;11.40;99.90;;;;;;5006044;28;20036;-56
2022/11/15 07:22:40;;;;;;;164.07;62.15;;;;;;;;;;5005390;28;20034;-56
2022/11/15 07:25:07;;;;;;;107.78;54.95;;;;;;;;;;5008780;28;20034;-57
2022/11/15 07:27:33;;;;;;;171.00;59.35;;;;;;;;;;5005798;28;20092;-56
2022/11/15 07:29:59;;;;;;;146.43;63.22;;;;;;;;;;5000910;28;20080;-59
2022/11/15 07:32:25;;;;;;;113.57;58.65;;;;;;;;;;5006331;28;20026;-56
2022/11/15 07:34:51;;;;;;;142.73;68.50;;;;;;;;;;5012246;28;20482;-56
2022/11/15 07:37:17;;;;;;;206.07;73.93;;;;;;;;;;5008847;28;20406;-56
2022/11/15 07:39:43;;;;;;;175.18;68.05;;;12.00;99.90;;;;;;5010850;28;20108;-56
2022/11/15 07:44:53;;;;;;;106.68;54.22;;;12.20;99.90;;;;;;5005067;28;20505;-57
2022/11/15 07:47:19;;;;;;;133.68;83.65;;;12.40;99.90;;;;;;5002656;28;20027;-56
2022/11/15 07:49:45;;;;;;;89.43;49.22;;;12.10;99.90;;;;;;5008549;28;20501;-62
2022/11/15 07:52:12;;;;;;;84.70;46.17;;;12.10;99.90;;;;;;5010493;28;20030;-55
2022/11/15 07:54:38;;;;;;;79.65;44.35;;;12.20;99.90;;;;;;5006926;28;20038;-59
2022/11/15 07:57:04;;;;;;;88.90;53.63;;;12.30;99.90;;;;;;5023623;28;20038;-52
2022/11/15 07:59:30;;;;;;;106.85;65.65;;;12.10;99.90;;;;;;4998845;28;20037;-61
2022/11/15 08:01:56;;;;;;;90.03;47.17;;;12.20;99.90;;;;;;5004289;28;20038;-60
2022/11/15 08:04:22;;;;;;;88.43;46.53;;;12.20;99.90;;;;;;5009164;28;20054;-60
2022/11/15 08:06:47;;;;;;;92.07;48.67;;;12.50;99.90;;;;;;5023839;28;20050;-60
2022/11/15 08:09:13;;;;;;;90.25;47.78;;;12.30;99.90;;;;;;5004192;28;20026;-57
2022/11/15 08:11:40;;;;;;;86.38;49.05;;;12.30;99.90;;;;;;5005682;28;20045;-55
2022/11/15 08:14:06;;;;;;;86.00;48.03;;;12.40;99.90;;;;;;5008787;28;20045;-60
2022/11/15 08:16:32;;;;;;;93.70;50.95;;;12.40;99.90;;;;;;5012227;28;20107;-58
2022/11/15 08:18:57;;;;;;;107.18;75.47;;;12.30;99.90;;;;;;5011188;28;20044;-60
2022/11/15 08:21:25;;;;;;;93.90;58.33;;;;;;;;;;5022531;28;20482;-57
2022/11/15 08:23:51;;;;;;;107.10;58.85;;;;;;;;;;5040263;28;20054;-57
2022/11/15 08:26:17;;;;;;;74.68;42.72;;;;;;;;;;5012180;28;20022;-61
2022/11/15 08:28:43;;;;;;;80.00;45.50;;;12.80;99.90;;;;;;5008323;28;20056;-58
2022/11/15 08:31:17;;;;;;;85.47;48.60;;;12.80;99.90;;;;;;5003829;28;20537;-60
2022/11/15 08:33:43;;;;;;;101.22;57.95;;;12.60;99.90;;;;;;5007187;28;20505;-59
2022/11/15 08:36:15;;;;;;;104.15;56.95;;;12.60;99.90;;;;;;5025917;28;20033;-61
2022/11/15 08:38:41;;;;;;;;;;;12.30;99.90;;;;;;5009093;28;20034;-58
2022/11/15 08:41:10;;;;;;;89.35;48.35;;;12.10;99.90;;;;;;5006034;28;19910;-56
2022/11/15 08:43:35;;;;;;;97.70;52.15;;;12.20;99.90;;;;;;5007389;28;20518;-57
2022/11/15 08:46:01;;;;;;;133.27;73.85;;;12.20;99.90;;;;;;5040484;28;20121;-58
2022/11/15 08:48:27;;;;;;;94.25;50.47;;;12.10;99.90;;;;;;5003726;28;20029;-56
2022/11/15 08:50:56;;;;;;;89.75;49.83;;;12.00;99.90;;;;;;5005780;28;20061;-57
2022/11/15 08:53:23;;;;;;;82.07;45.00;;;;;;;;;;5004766;28;20041;-59
2022/11/15 08:55:49;;;;;;;78.50;47.92;;;;;;;;;;5009597;28;20030;-61
2022/11/15 08:58:15;;;;;;;82.13;46.17;;;;;;;;;;5008898;28;20065;-56
2022/11/15 09:00:41;;;;;;;83.38;44.67;;;;;;;;;;5008231;28;20470;-57
2022/11/15 09:03:09;;;;;;;88.15;52.63;;;;;;;;;;5002498;28;20462;-58
2022/11/15 09:05:37;;;;;;;85.25;46.00;;;;;;;;;;4997939;28;20019;-58
2022/11/15 09:08:03;;;;;;;82.25;48.60;;;12.50;99.90;;;;;;5008143;28;20034;-56
2022/11/15 09:10:29;;;;;;;90.65;48.50;;;12.60;99.90;;;;;;5008627;28;20056;-58
2022/11/15 09:12:57;;;;;;;83.03;46.53;;;12.40;99.90;;;;;;5010136;28;20030;-56
2022/11/15 09:15:23;;;;;;;85.93;48.75;;;12.60;99.90;;;;;;5008239;28;20041;-57
2022/11/15 09:17:48;;;;;;;77.65;43.85;;;12.70;99.90;;;;;;5003687;28;20038;-60
2022/11/15 09:20:15;;;;;;;66.95;41.63;;;;;;;;;;5006952;28;20022;-63
2022/11/15 09:22:40;;;;;;;72.18;43.35;;;13.50;99.90;;;;;;5022743;28;20045;-56
2022/11/15 09:25:07;;;;;;;79.13;44.30;;;13.40;99.90;;;;;;5007954;28;20100;-59
2022/11/15 09:27:33;;;;;;;74.75;42.78;;;13.40;99.90;;;;;;5019419;28;20042;-61
2022/11/15 09:29:58;;;;;;;75.80;43.53;;;13.40;99.90;;;;;;5009148;28;20113;-57
2022/11/15 09:32:30;;;;;;;75.45;43.97;;;13.10;99.90;;;;;;5004996;28;20053;-60
2022/11/15 09:34:56;;;;;;;77.70;45.38;;;;;;;;;;5004581;28;20042;-61
2022/11/15 09:37:22;;;;;;;84.07;48.03;;;;;;;;;;5022551;28;20052;-57
2022/11/15 09:39:48;;;;;;;75.30;44.83;;;;;;;;;;5012858;28;20552;-58
2022/11/15 09:42:23;;;;;;;87.50;49.80;;;;;;;;;;5012170;28;20125;-58
2022/11/15 09:44:49;;;;;;;82.13;48.38;;;;;;;;;;5009401;28;20026;-56
2022/11/15 09:47:40;;;;;;;83.13;48.47;;;;;;;;;;5008959;28;20029;-64
2022/11/15 09:50:11;;;;;;;86.57;51.22;;;;;;;;;;5011277;28;20474;-60
2022/11/15 09:52:39;;;;;;;97.27;51.77;;;13.00;99.90;;;;;;5011014;28;20041;-62
2022/11/15 09:55:05;;;;;;;87.40;48.97;;;13.10;99.90;;;;;;5011301;28;20034;-54
2022/11/15 09:58:04;;;;;;;88.00;52.40;;;13.10;99.90;;;;;;5009656;28;20033;-56
2022/11/15 10:00:42;;;;;;;86.60;56.30;;;13.30;99.90;;;;;;4954391;28;20117;-59
2022/11/15 10:03:33;;;;;;;82.80;49.40;;;13.50;99.90;;;;;;4971621;28;20059;-59
2022/11/15 10:06:02;;;;;;;91.88;53.53;;;13.40;99.90;;;;;;4971372;28;20058;-61
2022/11/15 10:08:34;;;;;;;95.15;54.67;;;13.50;99.90;;;;;;4972185;28;20137;-58
2022/11/15 10:11:10;;;;;;;92.93;56.97;;;13.50;99.90;;;;;;4971368;28;20049;-58
2022/11/15 10:13:41;;;;;;;95.03;56.75;;;13.40;99.90;;;;;;4971775;28;20511;-59
2022/11/15 10:16:28;;;;;;;98.03;55.53;;;13.60;99.90;;;;;;4969872;28;20139;-59
2022/11/15 10:19:14;;;;;;;95.47;57.53;;;13.70;99.90;;;;;;4972172;28;20142;-61
2022/11/15 10:21:56;;;;;;;100.30;57.42;;;14.00;99.90;;;;;;4972015;28;20042;-58
2022/11/15 10:24:22;;;;;;;;;;;;;;;;;;4972845;28;20050;-56
2022/11/15 10:26:48;;;;;;;92.05;54.90;;;13.80;99.90;;;;;;4972678;28;19914;-56
2022/11/15 10:29:21;;;;;;;95.80;54.08;;;13.70;99.90;;;;;;4970310;28;20453;-56
2022/11/15 10:31:48;;;;;;;105.50;59.05;;;13.60;99.90;;;;;;4971301;28;20492;-56
2022/11/15 10:34:22;;;;;;;100.55;57.97;;;13.40;99.90;;;;;;4971931;28;20058;-56
2022/11/15 10:37:00;;;;;;;99.90;58.75;;;13.20;99.90;;;;;;4990938;28;20072;-56
2022/11/15 10:39:27;;;;;;;119.15;64.25;;;13.20;99.90;;;;;;5007790;28;20129;-56
2022/11/15 10:41:53;;;;;;;114.63;61.25;;;13.10;99.90;;;;;;5010418;28;20038;-56
2022/11/15 10:44:22;;;;;;;117.78;60.55;;;13.20;99.90;;;;;;5024637;28;20470;-55
2022/11/15 10:47:08;;;;;;;119.75;63.83;;;;;;;;;;5008764;28;20034;-55
2022/11/15 10:49:35;;;;;;;119.28;60.63;;;;;;;;;;5007247;28;20034;-55
2022/11/15 10:52:11;;;;;;;119.45;62.90;;;13.00;99.90;;;;;;5006422;28;20042;-57
2022/11/15 10:54:52;;;;;;;112.00;62.70;;;13.30;99.90;;;;;;5008735;28;20030;-56
2022/11/15 10:57:27;;;;;;;111.95;58.72;;;13.40;99.90;;;;;;5001315;28;20117;-56
2022/11/15 10:59:59;;;;;;;117.68;61.70;;;13.30;99.90;;;;;;5009855;28;20037;-56
2022/11/15 11:02:30;;;;;;;115.82;61.08;;;12.90;99.90;;;;;;5008551;28;20481;-56
2022/11/15 11:04:57;;;;;;;120.05;62.20;;;13.00;99.90;;;;;;5012171;28;20564;-55
2022/11/15 11:07:26;;;;;;;121.80;63.13;;;13.10;99.90;;;;;;4999397;28;20040;-57
2022/11/15 11:10:17;;;;;;;115.65;60.45;;;13.30;99.90;;;;;;5047637;28;20041;-55
2022/11/15 11:12:42;;;;;;;113.57;58.10;;;13.30;99.90;;;;;;5007428;28;20064;-56
2022/11/15 11:15:13;;;;;;;111.45;59.83;;;13.20;99.90;;;;;;5000242;28;20493;-56
2022/11/15 11:17:50;;;;;;;117.40;57.72;;;13.30;99.90;;;;;;5019515;28;20049;-57
2022/11/15 11:20:44;;;;;;;101.05;56.92;;;13.50;99.90;;;;;;5024167;28;20047;-56
2022/11/15 11:23:54;;;;;;;99.32;53.20;;;13.70;99.90;;;;;;5022561;28;20025;-57
2022/11/15 11:26:32;;;;;;;105.95;59.67;;;13.70;99.90;;;;;;5012356;28;20107;-53
2022/11/15 11:29:16;;;;;;;102.00;57.00;;;13.70;99.90;;;;;;5024745;28;20034;-50
2022/11/15 11:31:50;;;;;;;110.65;59.53;;;13.50;99.90;;;;;;5024414;28;20128;-50
2022/11/15 11:34:27;;;;;;;102.22;55.42;;;13.30;99.90;;;;;;5018844;28;20532;-56
2022/11/15 11:37:20;;;;;;;104.00;57.28;;;13.30;99.90;;;;;;5022056;28;20420;-55
2022/11/15 11:40:12;;;;;;;100.28;54.63;;;13.50;99.90;;;;;;5028297;28;20647;-58
2022/11/15 11:43:08;;;;;;;101.80;55.23;;;13.70;99.90;;;;;;5013006;28;22111;-56
2022/11/15 11:45:34;;;;;;;97.10;55.15;;;13.70;99.90;;;;;;5026070;28;20271;-56
2022/11/15 11:48:13;;;;;;;100.45;54.53;;;13.70;99.90;;;;;;4988974;28;20061;-57
2022/11/15 11:50:43;;;;;;;103.43;59.38;;;13.60;99.90;;;;;;5005144;28;20034;-57
2022/11/15 11:53:29;;;;;;;104.60;54.22;;;13.70;99.90;;;;;;5004276;28;20034;-54
2022/11/15 11:56:01;;;;;;;104.90;57.47;;;13.70;99.90;;;;;;5008424;28;20104;-57
2022/11/15 11:58:33;;;;;;;94.30;58.03;;;14.00;99.90;;;;;;5008521;28;20100;-57
2022/11/15 12:01:04;;;;;;;119.18;69.38;;;14.10;99.90;;;;;;5004214;28;20065;-54
2022/11/15 12:03:47;;;;;;;103.15;57.60;;;14.20;99.90;;;;;;5009783;28;20049;-56
2022/11/15 12:06:12;;;;;;;99.75;55.47;;;14.20;99.90;;;;;;5008803;28;20069;-55
2022/11/15 12:08:52;;;;;;;146.90;78.72;;;14.40;99.90;;;;;;5001229;28;20108;-58
2022/11/15 12:11:21;;;;;;;131.23;71.32;;;14.20;99.90;;;;;;5008101;28;20042;-54
2022/11/15 12:13:53;;;;;;;107.80;62.28;;;14.20;99.90;;;;;;5008391;28;20044;-55
2022/11/15 12:16:27;;;;;;;107.63;59.92;;;14.20;99.90;;;;;;5005066;28;20026;-54
2022/11/15 12:18:54;;;;;;;101.05;58.20;;;;;;;;;;5004826;28;20096;-57
2022/11/15 12:21:27;;;;;;;101.78;54.50;;;14.40;99.90;;;;;;5003596;28;20040;-58
2022/11/15 12:24:03;;;;;;;105.90;60.85;;;14.40;99.90;;;;;;5006194;28;20025;-59
2022/11/15 12:26:42;;;;;;;97.53;54.30;;;14.40;99.90;;;;;;5007165;28;20087;-58
2022/11/15 12:29:27;;;;;;;102.60;58.03;;;14.60;99.90;;;;;;5005144;28;20141;-57
2022/11/15 12:31:56;;;;;;;95.95;55.30;;;14.60;99.90;;;;;;5006762;28;20572;-55
2022/11/15 12:34:22;;;;;;;103.15;58.75;;;14.60;99.90;;;;;;5025435;28;20068;-54
2022/11/15 12:36:50;;;;;;;99.40;57.20;;;14.70;99.90;;;;;;5003688;28;20533;-55
2022/11/15 12:39:17;;;;;;;104.40;60.55;;;14.60;99.90;;;;;;5003379;28;20375;-56
2022/11/15 12:42:03;;;;;;;106.90;60.38;;;14.70;99.90;;;;;;5009065;28;20045;-56
2022/11/15 12:44:35;;;;;;;105.43;59.63;;;14.50;99.90;;;;;;5009674;28;20470;-56
2022/11/15 12:47:04;;;;;;;;;;;14.20;99.90;;;;;;5009680;28;20022;-58
2022/11/15 12:49:29;;;;;;;98.43;55.95;;;14.10;99.90;;;;;;5008845;28;19916;-56
2022/11/15 12:51:58;;;;;;;109.88;60.25;;;13.80;99.90;;;;;;5008385;28;20034;-55
2022/11/15 12:54:23;;;;;;;110.85;59.92;;;13.80;99.90;;;;;;5001888;28;20026;-56
2022/11/15 12:57:07;;;;;;;123.80;72.30;;;13.60;99.90;;;;;;5007572;28;20037;-56
2022/11/15 12:59:54;;;;;;;118.82;69.22;;;13.60;99.90;;;;;;5009055;28;20385;-58
2022/11/15 13:02:26;;;;;;;115.50;60.45;;;13.70;99.90;;;;;;5009995;28;20496;-55
2022/11/15 13:04:54;;;;;;;109.50;61.30;;;13.50;99.90;;;;;;5004281;28;20073;-57
2022/11/15 13:07:35;;;;;;;107.72;56.22;;;13.40;99.90;;;;;;5009842;28;20041;-57